createdAt,value
2019-01-24T00:00:52.044Z,13.35
2019-01-24T00:03:21.687Z,13.28
2019-01-24T00:05:51.277Z,16.12
2019-01-24T00:08:20.842Z,14.20
2019-01-24T00:10:50.458Z,11.22
2019-01-24T00:13:19.978Z,14.60
2019-01-24T00:15:49.538Z,13.08
2019-01-24T00:18:19.102Z,13.22
2019-01-24T00:20:48.606Z,13.80
2019-01-24T00:23:18.088Z,13.08
2019-01-24T00:25:47.658Z,14.13
2019-01-24T00:28:17.224Z,13.45
2019-01-24T00:30:46.881Z,12.60
2019-01-24T00:33:16.386Z,11.85
2019-01-24T00:35:45.896Z,11.40
2019-01-24T00:38:15.419Z,12.98
2019-01-24T00:40:44.924Z,15.65
2019-01-24T00:43:14.686Z,11.45
2019-01-24T00:45:44.271Z,14.30
2019-01-24T00:48:13.780Z,12.05
2019-01-24T00:50:43.337Z,15.43
2019-01-24T00:53:12.867Z,12.35
2019-01-24T00:55:42.390Z,15.18
2019-01-24T00:58:11.963Z,13.40
2019-01-24T01:00:41.481Z,11.50
2019-01-24T01:03:10.977Z,17.52
2019-01-24T01:05:40.724Z,14.60
2019-01-24T01:08:10.376Z,12.73
2019-01-24T01:10:39.885Z,13.18
2019-01-24T01:13:09.502Z,12.65
2019-01-24T01:15:38.985Z,12.28
2019-01-24T01:18:08.559Z,13.62
2019-01-24T01:20:38.122Z,12.23
2019-01-24T01:23:07.687Z,14.93
2019-01-24T01:25:37.296Z,13.90
2019-01-24T01:28:06.885Z,12.25
2019-01-24T01:30:36.445Z,14.15
2019-01-24T01:33:06.398Z,11.63
2019-01-24T01:35:35.970Z,13.43
2019-01-24T01:38:06.009Z,13.30
2019-01-24T01:40:36.714Z,12.80
2019-01-24T01:43:06.528Z,14.53
2019-01-24T01:45:36.043Z,10.70
2019-01-24T01:48:06.336Z,15.13
2019-01-24T01:50:35.884Z,15.53
2019-01-24T01:53:05.751Z,15.75
2019-01-24T01:55:35.238Z,13.80
2019-01-24T01:58:05.125Z,14.15
2019-01-24T02:00:34.793Z,14.47
2019-01-24T02:03:04.675Z,12.93
2019-01-24T02:05:34.231Z,14.38
2019-01-24T02:08:03.798Z,13.48
2019-01-24T02:10:33.831Z,13.43
2019-01-24T02:13:03.399Z,12.93
2019-01-24T02:15:32.917Z,14.83
2019-01-24T02:18:02.544Z,13.38
2019-01-24T02:20:32.148Z,12.98
2019-01-24T02:23:01.634Z,14.28
2019-01-24T02:25:31.187Z,15.53
2019-01-24T02:28:00.683Z,15.50
2019-01-24T02:30:31.111Z,14.85
2019-01-24T02:33:00.766Z,14.63
2019-01-24T02:35:30.272Z,14.75
2019-01-24T02:37:59.798Z,16.12
2019-01-24T02:40:29.381Z,13.40
2019-01-24T02:42:58.878Z,17.57
2019-01-24T02:45:28.434Z,15.50
2019-01-24T02:47:57.933Z,13.53
2019-01-24T02:50:27.421Z,13.60
2019-01-24T02:52:56.916Z,15.50
2019-01-24T02:55:26.479Z,12.82
2019-01-24T02:57:55.969Z,14.87
2019-01-24T03:00:25.636Z,15.90
2019-01-24T03:02:55.153Z,13.38
2019-01-24T03:05:25.182Z,12.82
2019-01-24T03:07:54.825Z,15.65
2019-01-24T03:10:24.313Z,16.15
2019-01-24T03:12:53.894Z,19.12
2019-01-24T03:15:24.119Z,17.12
2019-01-24T03:17:53.622Z,15.28
2019-01-24T03:20:23.126Z,18.15
2019-01-24T03:22:52.676Z,14.55
2019-01-24T03:25:22.237Z,16.27
2019-01-24T03:27:51.817Z,15.13
2019-01-24T03:30:23.270Z,14.47
2019-01-24T03:32:52.823Z,12.33
2019-01-24T03:35:25.114Z,13.95
2019-01-24T03:37:54.620Z,15.00
2019-01-24T03:40:24.453Z,12.90
2019-01-24T03:42:54.056Z,15.30
2019-01-24T03:45:23.585Z,15.70
2019-01-24T03:47:53.071Z,14.18
2019-01-24T03:50:23.309Z,14.18
2019-01-24T03:52:52.940Z,14.10
2019-01-24T03:55:23.040Z,17.12
2019-01-24T03:57:52.627Z,14.05
2019-01-24T04:00:24.632Z,13.95
2019-01-24T04:02:54.485Z,15.88
2019-01-24T04:05:24.315Z,15.45
2019-01-24T04:07:53.959Z,16.12
2019-01-24T04:10:23.943Z,16.42
2019-01-24T04:12:53.500Z,14.23
2019-01-24T04:15:25.420Z,17.00
2019-01-24T04:17:56.564Z,15.13
2019-01-24T04:20:26.130Z,16.05
2019-01-24T04:22:55.619Z,18.60
2019-01-24T04:25:25.109Z,14.68
2019-01-24T04:27:54.613Z,13.90
2019-01-24T04:30:24.512Z,13.65
2019-01-24T04:32:54.107Z,16.02
2019-01-24T04:35:23.739Z,15.85
2019-01-24T04:37:53.408Z,13.18
2019-01-24T04:40:22.966Z,12.60
2019-01-24T04:42:52.618Z,14.75
2019-01-24T04:45:22.177Z,15.40
2019-01-24T04:47:51.672Z,15.23
2019-01-24T04:50:21.174Z,14.93
2019-01-24T04:52:50.730Z,16.25
2019-01-24T04:55:20.870Z,13.53
2019-01-24T04:57:50.794Z,14.43
2019-01-24T05:00:30.060Z,13.83
2019-01-24T05:02:59.553Z,17.75
2019-01-24T05:05:29.227Z,15.08
2019-01-24T05:07:58.841Z,16.95
2019-01-24T05:10:28.366Z,14.43
2019-01-24T05:12:57.927Z,13.72
2019-01-24T05:15:27.487Z,16.32
2019-01-24T05:17:56.989Z,14.53
2019-01-24T05:20:26.551Z,16.00
2019-01-24T05:22:56.065Z,16.35
2019-01-24T05:25:25.559Z,13.55
2019-01-24T05:27:55.081Z,13.78
2019-01-24T05:30:26.675Z,15.35
2019-01-24T05:32:56.396Z,14.25
2019-01-24T05:35:26.175Z,14.98
2019-01-24T05:37:55.635Z,19.55
2019-01-24T05:40:25.141Z,15.95
2019-01-24T05:42:55.665Z,16.10
2019-01-24T05:45:44.502Z,13.48
2019-01-24T05:48:14.037Z,18.90
2019-01-24T05:50:43.553Z,16.73
2019-01-24T05:53:13.048Z,15.00
2019-01-24T05:55:42.554Z,15.48
2019-01-24T05:58:12.126Z,15.93
2019-01-24T06:00:42.477Z,15.80
2019-01-24T06:03:12.067Z,16.15
2019-01-24T06:05:42.051Z,16.12
2019-01-24T06:08:11.650Z,13.05
2019-01-24T06:10:41.136Z,15.30
2019-01-24T06:13:10.654Z,15.30
2019-01-24T06:15:40.214Z,13.03
2019-01-24T06:18:09.845Z,16.23
2019-01-24T06:20:40.024Z,17.17
2019-01-24T06:23:11.124Z,15.72
2019-01-24T06:25:40.819Z,16.80
2019-01-24T06:28:10.326Z,17.15
2019-01-24T06:30:39.822Z,18.35
2019-01-24T06:33:09.453Z,13.60
2019-01-24T06:35:38.975Z,15.20
2019-01-24T06:38:08.545Z,18.05
2019-01-24T06:40:38.052Z,15.63
2019-01-24T06:43:07.548Z,14.93
2019-01-24T06:45:37.199Z,15.80
2019-01-24T06:48:06.759Z,16.95
2019-01-24T06:50:36.326Z,15.78
2019-01-24T06:53:05.963Z,16.12
2019-01-24T06:55:35.458Z,13.60
2019-01-24T06:58:05.107Z,16.48
2019-01-24T07:00:34.624Z,16.48
2019-01-24T07:03:04.180Z,16.32
2019-01-24T07:05:33.738Z,16.23
2019-01-24T07:08:03.229Z,16.57
2019-01-24T07:10:32.729Z,15.08
2019-01-24T07:13:03.930Z,16.77
2019-01-24T07:15:33.596Z,18.62
2019-01-24T07:18:03.237Z,16.50
2019-01-24T07:20:32.774Z,15.40
2019-01-24T07:23:02.348Z,16.48
2019-01-24T07:25:32.595Z,16.57
2019-01-24T07:28:02.090Z,16.62
2019-01-24T07:30:31.665Z,15.75
2019-01-24T07:33:01.151Z,20.30
2019-01-24T07:35:30.741Z,16.70
2019-01-24T07:38:00.246Z,20.85
2019-01-24T07:40:29.835Z,18.90
2019-01-24T07:42:59.338Z,16.85
2019-01-24T07:45:36.057Z,17.82
2019-01-24T07:48:05.936Z,19.57
2019-01-24T07:50:35.502Z,16.32
2019-01-24T07:53:06.349Z,16.85
2019-01-24T07:55:35.904Z,14.78
2019-01-24T07:58:06.241Z,16.85
2019-01-24T08:00:35.742Z,17.07
2019-01-24T08:03:05.640Z,17.40
2019-01-24T08:05:35.215Z,17.73
2019-01-24T08:08:04.767Z,18.00
2019-01-24T08:10:34.465Z,14.68
2019-01-24T08:13:04.210Z,16.42
2019-01-24T08:15:33.779Z,17.27
2019-01-24T08:18:03.354Z,15.98
2019-01-24T08:20:32.837Z,15.20
2019-01-24T08:23:02.441Z,17.65
2019-01-24T08:25:31.905Z,17.90
2019-01-24T08:28:01.401Z,18.55
2019-01-24T08:30:33.472Z,16.02
2019-01-24T08:33:02.966Z,14.00
2019-01-24T08:35:32.655Z,16.40
2019-01-24T08:38:02.287Z,18.50
2019-01-24T08:40:31.785Z,14.70
2019-01-24T08:43:01.333Z,16.40
2019-01-24T08:45:30.825Z,16.02
2019-01-24T08:48:00.486Z,15.45
2019-01-24T08:50:30.070Z,16.65
2019-01-24T08:52:59.630Z,13.53
2019-01-24T08:55:38.087Z,18.55
2019-01-24T08:58:07.835Z,17.12
2019-01-24T09:00:37.465Z,14.85
2019-01-24T09:03:07.326Z,17.95
2019-01-24T09:05:36.968Z,18.25
2019-01-24T09:08:06.790Z,18.57
2019-01-24T09:10:38.495Z,16.20
2019-01-24T09:13:08.447Z,18.82
2019-01-24T09:15:38.254Z,17.92
2019-01-24T09:18:07.974Z,18.02
2019-01-24T09:20:37.552Z,18.50
2019-01-24T09:23:08.238Z,19.30
2019-01-24T09:25:37.764Z,16.60
2019-01-24T09:28:07.354Z,18.45
2019-01-24T09:30:36.988Z,18.25
2019-01-24T09:33:06.607Z,18.67
2019-01-24T09:35:36.245Z,19.60
2019-01-24T09:38:05.963Z,19.55
2019-01-24T09:40:35.501Z,16.85
2019-01-24T09:43:05.461Z,18.05
2019-01-24T09:45:35.033Z,16.80
2019-01-24T09:48:05.355Z,15.90
2019-01-24T09:50:34.909Z,17.50
2019-01-24T09:53:04.570Z,19.42
2019-01-24T09:55:34.141Z,18.87
2019-01-24T09:58:03.970Z,17.48
2019-01-24T10:00:35.319Z,18.75
2019-01-24T10:03:05.309Z,17.45
2019-01-24T10:05:34.892Z,19.60
2019-01-24T10:08:04.820Z,18.55
2019-01-24T10:10:34.328Z,16.87
2019-01-24T10:13:03.959Z,18.73
2019-01-24T10:15:33.590Z,18.23
2019-01-24T10:18:03.253Z,18.73
2019-01-24T10:20:32.758Z,17.75
2019-01-24T10:23:02.342Z,17.77
2019-01-24T10:25:35.029Z,17.30
2019-01-24T10:28:05.046Z,24.25
2019-01-24T10:30:34.634Z,19.52
2019-01-24T10:33:04.288Z,20.75
2019-01-24T10:35:33.859Z,19.73
2019-01-24T10:38:03.491Z,19.20
2019-01-24T10:40:34.165Z,18.48
2019-01-24T10:43:03.783Z,18.73
2019-01-24T10:45:33.369Z,15.65
2019-01-24T10:48:03.134Z,19.15
2019-01-24T10:50:32.707Z,17.00
2019-01-24T10:53:02.264Z,17.00
2019-01-24T10:55:31.892Z,19.00
2019-01-24T10:58:02.020Z,15.78
2019-01-24T11:00:35.158Z,18.50
2019-01-24T11:03:08.735Z,19.15
2019-01-24T11:05:38.366Z,22.10
2019-01-24T11:08:08.031Z,15.75
2019-01-24T11:10:37.530Z,18.75
2019-01-24T11:13:07.171Z,19.27
2019-01-24T11:15:36.812Z,16.93
2019-01-24T11:18:07.425Z,19.67
2019-01-24T11:20:36.992Z,19.12
2019-01-24T11:23:06.793Z,20.15
2019-01-24T11:25:36.695Z,19.17
2019-01-24T11:28:06.329Z,19.62
2019-01-24T11:30:36.390Z,21.55
2019-01-24T11:33:06.789Z,21.40
2019-01-24T11:35:37.911Z,20.85
2019-01-24T11:38:07.575Z,17.67
2019-01-24T11:40:37.148Z,21.50
2019-01-24T11:43:06.896Z,19.00
2019-01-24T11:45:40.019Z,22.80
2019-01-24T11:48:09.647Z,22.73
2019-01-24T11:50:39.224Z,20.90
2019-01-24T11:53:09.700Z,22.75
2019-01-24T11:55:39.320Z,19.40
2019-01-24T11:58:08.971Z,21.37
2019-01-24T12:00:41.525Z,16.35
2019-01-24T12:03:11.040Z,16.30
2019-01-24T12:05:40.527Z,20.25
2019-01-24T12:08:10.158Z,17.95
2019-01-24T12:10:39.715Z,20.62
2019-01-24T12:13:09.315Z,18.92
2019-01-24T12:15:38.973Z,18.42
2019-01-24T12:18:08.707Z,19.75
2019-01-24T12:20:38.359Z,17.62
2019-01-24T12:23:07.929Z,18.45
2019-01-24T12:25:37.561Z,23.85
2019-01-24T12:28:07.224Z,16.65
2019-01-24T12:30:38.048Z,18.37
2019-01-24T12:33:07.684Z,19.23
2019-01-24T12:35:37.246Z,19.12
2019-01-24T12:38:06.867Z,18.05
2019-01-24T12:40:36.436Z,21.35
2019-01-24T12:43:06.270Z,22.27
2019-01-24T12:45:37.803Z,19.87
2019-01-24T12:48:07.798Z,20.02
2019-01-24T12:50:37.380Z,18.30
2019-01-24T12:53:07.367Z,19.57
2019-01-24T12:55:37.011Z,21.33
2019-01-24T12:58:06.773Z,17.82
2019-01-24T13:00:37.980Z,21.57
2019-01-24T13:03:07.891Z,19.62
2019-01-24T13:05:37.516Z,19.17
2019-01-24T13:08:07.158Z,19.85
2019-01-24T13:10:36.851Z,17.75
2019-01-24T13:13:06.803Z,20.12
2019-01-24T13:15:36.798Z,17.12
2019-01-24T13:18:06.587Z,18.17
2019-01-24T13:20:36.269Z,19.15
2019-01-24T13:23:06.112Z,20.17
2019-01-24T13:25:35.659Z,20.70
2019-01-24T13:28:05.609Z,19.92
2019-01-24T13:30:35.347Z,19.92
2019-01-24T13:33:05.651Z,17.00
2019-01-24T13:35:35.246Z,20.70
2019-01-24T13:38:05.332Z,19.05
2019-01-24T13:40:34.835Z,20.90
2019-01-24T13:43:04.862Z,19.02
2019-01-24T13:45:36.741Z,18.12
2019-01-24T13:48:06.634Z,19.75
2019-01-24T13:50:36.194Z,18.45
2019-01-24T13:53:06.814Z,21.48
2019-01-24T13:55:36.306Z,19.52
2019-01-24T13:58:07.146Z,24.15
2019-01-24T14:00:37.563Z,25.75
2019-01-24T14:03:20.675Z,23.55
2019-01-24T14:05:50.323Z,18.80
2019-01-24T14:08:19.948Z,23.40
2019-01-24T14:10:49.448Z,23.25
2019-01-24T14:13:18.970Z,21.82
2019-01-24T14:15:48.537Z,22.90
2019-01-24T14:18:18.122Z,17.70
2019-01-24T14:20:50.287Z,19.07
2019-01-24T14:23:19.846Z,17.27
2019-01-24T14:25:49.363Z,18.73
2019-01-24T14:28:22.719Z,20.32
2019-01-24T14:30:52.196Z,18.15
2019-01-24T14:33:21.720Z,17.87
2019-01-24T14:35:51.527Z,18.55
2019-01-24T14:38:21.053Z,18.87
2019-01-24T14:40:50.588Z,16.52
2019-01-24T14:43:20.077Z,17.87
2019-01-24T14:45:49.708Z,18.05
2019-01-24T14:48:19.241Z,17.02
2019-01-24T14:50:48.806Z,18.27
2019-01-24T14:53:18.297Z,17.45
2019-01-24T14:55:47.969Z,17.98
2019-01-24T14:58:17.560Z,19.20
2019-01-24T15:00:54.978Z,16.65
2019-01-24T15:03:24.551Z,19.20
2019-01-24T15:05:54.111Z,14.07
2019-01-24T15:08:23.638Z,16.65
2019-01-24T15:10:53.127Z,18.75
2019-01-24T15:13:22.713Z,16.07
2019-01-24T15:15:52.301Z,19.77
2019-01-24T15:18:21.783Z,19.25
2019-01-24T15:20:51.292Z,17.05
2019-01-24T15:23:20.882Z,16.17
2019-01-24T15:25:50.524Z,15.70
2019-01-24T15:28:20.111Z,16.97
2019-01-24T15:30:49.680Z,19.30
2019-01-24T15:33:19.249Z,19.12
2019-01-24T15:35:48.750Z,18.80
2019-01-24T15:38:18.407Z,16.62
2019-01-24T15:40:48.016Z,16.93
2019-01-24T15:43:17.532Z,20.62
2019-01-24T15:45:47.168Z,15.43
2019-01-24T15:48:16.736Z,17.42
2019-01-24T15:50:46.305Z,19.50
2019-01-24T15:53:15.798Z,20.75
2019-01-24T15:55:45.503Z,21.35
2019-01-24T15:58:15.068Z,17.07
2019-01-24T16:00:44.634Z,20.12
2019-01-24T16:03:15.182Z,16.80
2019-01-24T16:05:44.762Z,20.68
2019-01-24T16:08:14.256Z,22.02
2019-01-24T16:10:43.829Z,24.15
2019-01-24T16:13:13.421Z,20.00
2019-01-24T16:15:43.051Z,20.20
2019-01-24T16:18:13.644Z,18.48
2019-01-24T16:20:43.603Z,22.80
2019-01-24T16:23:13.328Z,23.52
2019-01-24T16:25:42.971Z,16.12
2019-01-24T16:28:12.598Z,20.12
2019-01-24T16:30:42.116Z,18.50
2019-01-24T16:33:11.765Z,23.83
2019-01-24T16:35:41.408Z,21.05
2019-01-24T16:38:10.995Z,22.27
2019-01-24T16:40:40.494Z,18.95
2019-01-24T16:43:10.094Z,19.05
2019-01-24T16:45:39.678Z,17.52
2019-01-24T16:48:09.344Z,16.95
2019-01-24T16:50:38.986Z,17.27
2019-01-24T16:53:08.622Z,19.12
2019-01-24T16:55:38.138Z,17.23
2019-01-24T16:58:07.876Z,17.82
2019-01-24T17:00:46.847Z,18.42
2019-01-24T17:03:17.087Z,17.57
2019-01-24T17:05:46.713Z,20.00
2019-01-24T17:08:16.960Z,18.67
2019-01-24T17:10:46.584Z,17.98
2019-01-24T17:13:16.248Z,18.02
2019-01-24T17:15:45.751Z,18.77
2019-01-24T17:18:15.336Z,18.15
2019-01-24T17:20:44.970Z,17.65
2019-01-24T17:23:14.466Z,20.17
2019-01-24T17:25:43.963Z,16.48
2019-01-24T17:28:13.535Z,20.62
2019-01-24T17:30:43.096Z,18.60
2019-01-24T17:33:12.583Z,19.92
2019-01-24T17:35:42.143Z,20.85
2019-01-24T17:38:11.723Z,23.40
2019-01-24T17:40:41.375Z,22.93
2019-01-24T17:43:11.021Z,19.20
2019-01-24T17:45:40.605Z,18.45
2019-01-24T17:48:10.120Z,21.87
2019-01-24T17:50:39.698Z,18.73
2019-01-24T17:53:09.189Z,20.52
2019-01-24T17:55:42.639Z,19.65
2019-01-24T17:58:12.289Z,19.87
2019-01-24T18:00:43.656Z,19.75
2019-01-24T18:03:13.217Z,18.75
2019-01-24T18:05:42.728Z,15.80
2019-01-24T18:08:12.224Z,20.27
2019-01-24T18:10:41.806Z,19.05
2019-01-24T18:13:11.544Z,19.45
2019-01-24T18:15:41.279Z,18.02
2019-01-24T18:18:13.664Z,21.20
2019-01-24T18:20:43.293Z,17.87
2019-01-24T18:23:13.183Z,17.85
2019-01-24T18:25:42.737Z,16.00
2019-01-24T18:28:12.956Z,18.90
2019-01-24T18:30:42.967Z,14.93
2019-01-24T18:33:12.764Z,18.75
2019-01-24T18:35:42.353Z,20.43
2019-01-24T18:38:11.927Z,21.55
2019-01-24T18:40:41.584Z,18.50
2019-01-24T18:43:15.593Z,23.40
2019-01-24T18:45:54.412Z,22.87
2019-01-24T18:48:24.078Z,21.02
2019-01-24T18:50:53.666Z,22.00
2019-01-24T18:53:23.286Z,20.68
2019-01-24T18:55:52.801Z,24.47
2019-01-24T18:58:22.503Z,16.55
2019-01-24T19:00:52.119Z,16.73
2019-01-24T19:03:21.605Z,21.25
2019-01-24T19:05:51.140Z,16.97
2019-01-24T19:08:20.784Z,19.35
2019-01-24T19:10:50.416Z,16.67
2019-01-24T19:13:19.976Z,18.07
2019-01-24T19:15:51.188Z,17.48
2019-01-24T19:18:20.886Z,18.25
2019-01-24T19:20:50.560Z,19.73
2019-01-24T19:23:20.050Z,19.87
2019-01-24T19:25:49.722Z,17.85
2019-01-24T19:28:19.442Z,21.12
2019-01-24T19:30:49.094Z,21.50
2019-01-24T19:33:18.595Z,16.65
2019-01-24T19:35:48.187Z,21.65
2019-01-24T19:38:17.781Z,20.50
2019-01-24T19:40:47.394Z,17.12
2019-01-24T19:43:16.971Z,19.80
2019-01-24T19:45:46.583Z,17.62
2019-01-24T19:48:16.076Z,17.95
2019-01-24T19:50:45.624Z,21.02
2019-01-24T19:53:15.219Z,19.15
2019-01-24T19:55:44.723Z,20.45
2019-01-24T19:58:14.382Z,18.85
2019-01-24T20:00:43.858Z,21.40
2019-01-24T20:03:13.424Z,15.93
2019-01-24T20:05:43.060Z,19.20
2019-01-24T20:08:12.722Z,20.25
2019-01-24T20:10:42.329Z,18.62
2019-01-24T20:13:11.895Z,19.55
2019-01-24T20:15:41.581Z,18.87
2019-01-24T20:18:11.305Z,15.50
2019-01-24T20:20:41.041Z,17.57
2019-01-24T20:23:10.805Z,22.55
2019-01-24T20:25:40.325Z,22.37
2019-01-24T20:28:09.947Z,25.75
2019-01-24T20:30:39.459Z,21.02
2019-01-24T20:33:08.984Z,18.80
2019-01-24T20:35:48.575Z,18.85
2019-01-24T20:38:18.206Z,19.55
2019-01-24T20:40:47.783Z,18.98
2019-01-24T20:43:17.950Z,16.30
2019-01-24T20:45:47.512Z,19.17
2019-01-24T20:48:17.121Z,21.90
2019-01-24T20:50:46.755Z,17.82
2019-01-24T20:53:16.341Z,19.92
2019-01-24T20:55:45.916Z,18.92
2019-01-24T20:58:15.409Z,20.72
2019-01-24T21:00:45.118Z,20.88
2019-01-24T21:03:14.905Z,18.10
2019-01-24T21:05:44.463Z,18.80
2019-01-24T21:08:14.197Z,18.75
2019-01-24T21:10:43.783Z,19.48
2019-01-24T21:13:14.254Z,20.12
2019-01-24T21:15:43.779Z,16.97
2019-01-24T21:18:13.387Z,20.25
2019-01-24T21:20:42.968Z,18.50
2019-01-24T21:23:12.545Z,19.05
2019-01-24T21:25:42.192Z,17.57
2019-01-24T21:28:11.800Z,24.07
2019-01-24T21:30:41.460Z,19.17
2019-01-24T21:33:10.965Z,17.30
2019-01-24T21:35:40.568Z,20.40
2019-01-24T21:38:10.270Z,20.43
2019-01-24T21:40:39.823Z,20.72
2019-01-24T21:43:09.479Z,20.00
2019-01-24T21:45:39.532Z,17.87
2019-01-24T21:48:09.562Z,26.33
2019-01-24T21:50:39.243Z,24.85
2019-01-24T21:53:08.865Z,21.70
2019-01-24T21:55:38.572Z,22.07
2019-01-24T21:58:08.695Z,20.00
2019-01-24T22:00:38.349Z,21.33
2019-01-24T22:03:08.034Z,18.05
2019-01-24T22:08:07.257Z,20.35
2019-01-24T22:10:36.853Z,18.95
2019-01-24T22:13:07.063Z,17.95
2019-01-24T22:15:36.690Z,19.87
2019-01-24T22:18:06.623Z,21.17
2019-01-24T22:20:36.188Z,17.45
2019-01-24T22:23:06.017Z,17.73
2019-01-24T22:25:36.339Z,18.65
2019-01-24T22:28:07.043Z,18.85
2019-01-24T22:30:42.393Z,18.20
2019-01-24T22:33:12.066Z,16.90
2019-01-24T22:35:41.575Z,19.40
2019-01-24T22:38:11.383Z,19.77
2019-01-24T22:40:40.901Z,20.23
2019-01-24T22:43:10.387Z,21.30
2019-01-24T22:45:39.960Z,16.80
2019-01-24T22:48:09.613Z,17.45
2019-01-24T22:50:39.177Z,17.37
2019-01-24T22:53:08.740Z,18.85
2019-01-24T22:55:38.304Z,16.67
2019-01-24T22:58:08.346Z,16.30
2019-01-24T23:01:12.716Z,16.65
2019-01-24T23:03:45.102Z,20.30
2019-01-24T23:06:14.747Z,21.70
2019-01-24T23:08:44.242Z,19.52
2019-01-24T23:11:13.752Z,18.42
2019-01-24T23:13:43.327Z,16.80
2019-01-24T23:16:13.057Z,18.20
2019-01-24T23:18:42.647Z,20.48
2019-01-24T23:21:12.233Z,19.05
2019-01-24T23:23:41.793Z,15.45
2019-01-24T23:26:11.318Z,16.95
2019-01-24T23:28:40.840Z,15.65
2019-01-24T23:31:10.457Z,18.27
2019-01-24T23:33:40.040Z,21.62
2019-01-24T23:36:09.673Z,16.73
2019-01-24T23:38:40.239Z,14.93
2019-01-24T23:41:09.770Z,19.75
2019-01-24T23:43:40.757Z,16.77
2019-01-24T23:46:10.644Z,19.67
2019-01-24T23:48:40.131Z,17.77
2019-01-24T23:51:09.687Z,16.42
2019-01-24T23:53:39.200Z,18.57
2019-01-24T23:56:08.765Z,15.95
2019-01-24T23:58:38.281Z,18.27
